Airport View

Enter ICAO identifier to see the current METAR for that AWOS.

KFNL for example

KPIT 291351Z 13005KT 10SM FEW130 SCT250 16/12 A3018

29 Aug 2014 14:16

Phone: 412-472-0145

Other Area AWOS: KAGC - KBVI - KBTP - KAFJ

TAF KPIT 291120Z 2912/3018 00000KT P6SM SKC FM291500 13005KT P6SM SKC